KMKT

Mankato Regional Airport

Mankato, Minnesota, USA
METAR KMKT 240756Z AUTO 17008KT 10SM CLR 21/17 A3005 RMK AO2 SLP172 T02110172
Observed Flight Rules
May-24 @ 07:56 UTC (13 minutes ago) Visual Flight Rules
Wind Visibility Clouds
170° at 8 knots 10 miles
  • Clear skies
Temperatures Readings
Current 21°C / 70°F
Dewpoint 17°C / 63°F
Humidity 78%
Altimeter 30.05" Hg
Pressure 1017.2 hPa
Elevation 311
METAR KMKT 240756Z AUTO 17008KT 10SM CLR 21/17 A3005 RMK AO2 SLP172 T02110172
Observed Flight Rules
May-24 @ 07:56 UTC
(13 minutes ago)
VFR
Wind Visibility
170° at 8 knots 10 miles
Clouds
  • Clear skies
Temperature Dewpoint
21°C / 70°F 17°C / 63°F
Humidity Altimeter Pressure
78% 30.05" Hg 1017.2 hPa